createdAt,value
2017-02-02T00:00:35.748Z,157.50
2017-02-02T00:01:36.160Z,135.00
2017-02-02T00:02:36.653Z,112.50
2017-02-02T00:03:37.209Z,135.00
2017-02-02T00:04:37.687Z,157.50
2017-02-02T00:05:38.209Z,180.00
2017-02-02T00:06:38.733Z,180.00
2017-02-02T00:07:39.237Z,157.50
2017-02-02T00:08:39.776Z,157.50
2017-02-02T00:09:40.279Z,157.50
2017-02-02T00:10:40.797Z,157.50
2017-02-02T00:11:41.456Z,135.00
2017-02-02T00:12:41.847Z,157.50
2017-02-02T00:13:42.498Z,157.50
2017-02-02T00:14:42.895Z,157.50
2017-02-02T00:15:43.414Z,135.00
2017-02-02T00:16:44.075Z,157.50
2017-02-02T00:17:44.452Z,157.50
2017-02-02T00:18:44.972Z,157.50
2017-02-02T00:19:45.498Z,157.50
2017-02-02T00:20:46.016Z,157.50
2017-02-02T00:21:46.664Z,180.00
2017-02-02T00:22:47.040Z,180.00
2017-02-02T00:23:47.570Z,157.50
2017-02-02T00:24:48.238Z,157.50
2017-02-02T00:25:48.744Z,135.00
2017-02-02T00:26:49.262Z,112.50
2017-02-02T00:27:49.778Z,157.50
2017-02-02T00:28:50.170Z,135.00
2017-02-02T00:29:50.815Z,157.50
2017-02-02T00:30:51.198Z,157.50
2017-02-02T00:31:51.851Z,157.50
2017-02-02T00:32:52.239Z,135.00
2017-02-02T00:33:52.744Z,157.50
2017-02-02T00:34:53.281Z,157.50
2017-02-02T00:35:53.932Z,157.50
2017-02-02T00:36:54.459Z,157.50
2017-02-02T00:37:54.840Z,135.00
2017-02-02T00:38:55.653Z,157.50
2017-02-02T00:39:55.875Z,135.00
2017-02-02T00:40:56.383Z,157.50
2017-02-02T00:41:56.897Z,157.50
2017-02-02T00:42:57.567Z,135.00
2017-02-02T00:43:58.082Z,135.00
2017-02-02T00:44:58.606Z,157.50
2017-02-02T00:45:58.986Z,157.50
2017-02-02T00:46:59.495Z,157.50
2017-02-02T00:48:00.196Z,112.50
2017-02-02T00:49:00.555Z,135.00
2017-02-02T00:50:01.215Z,135.00
2017-02-02T00:51:01.574Z,157.50
2017-02-02T00:52:02.101Z,157.50
2017-02-02T00:53:02.631Z,157.50
2017-02-02T00:54:03.158Z,157.50
2017-02-02T00:55:03.799Z,157.50
2017-02-02T00:56:04.177Z,157.50
2017-02-02T00:57:04.706Z,157.50
2017-02-02T00:58:05.273Z,157.50
2017-02-02T00:59:05.758Z,157.50
2017-02-02T01:00:06.258Z,157.50
2017-02-02T01:01:06.795Z,157.50
2017-02-02T01:02:07.314Z,135.00
2017-02-02T01:03:07.967Z,135.00
2017-02-02T01:04:08.339Z,135.00
2017-02-02T01:05:08.868Z,135.00
2017-02-02T01:06:09.390Z,157.50
2017-02-02T01:07:09.893Z,135.00
2017-02-02T01:08:10.426Z,180.00
2017-02-02T01:09:10.946Z,180.00
2017-02-02T01:10:11.452Z,180.00
2017-02-02T01:11:11.976Z,135.00
2017-02-02T01:12:12.635Z,112.50
2017-02-02T01:13:13.160Z,112.50
2017-02-02T01:14:13.531Z,90.00
2017-02-02T01:15:14.087Z,157.50
2017-02-02T01:16:14.585Z,157.50
2017-02-02T01:17:15.098Z,157.50
2017-02-02T01:18:15.795Z,112.50
2017-02-02T01:19:16.441Z,157.50
2017-02-02T01:20:16.672Z,157.50
2017-02-02T01:21:17.181Z,135.00
2017-02-02T01:22:17.694Z,157.50
2017-02-02T01:23:18.211Z,157.50
2017-02-02T01:24:18.882Z,157.50
2017-02-02T01:25:19.249Z,157.50
2017-02-02T01:26:19.769Z,157.50
2017-02-02T01:27:20.275Z,157.50
2017-02-02T01:28:20.813Z,157.50
2017-02-02T01:29:21.462Z,157.50
2017-02-02T01:30:21.985Z,157.50
2017-02-02T01:31:22.365Z,157.50
2017-02-02T01:32:23.022Z,157.50
2017-02-02T01:33:23.393Z,157.50
2017-02-02T01:34:24.065Z,112.50
2017-02-02T01:35:24.579Z,135.00
2017-02-02T01:36:24.976Z,135.00
2017-02-02T01:37:25.473Z,135.00
2017-02-02T01:38:26.159Z,112.50
2017-02-02T01:39:26.528Z,135.00
2017-02-02T01:40:27.041Z,157.50
2017-02-02T01:41:27.581Z,157.50
2017-02-02T01:42:28.085Z,157.50
2017-02-02T01:43:28.660Z,157.50
2017-02-02T01:44:29.277Z,157.50
2017-02-02T01:45:29.663Z,157.50
2017-02-02T01:46:30.308Z,135.00
2017-02-02T01:47:30.687Z,157.50
2017-02-02T01:48:31.214Z,157.50
2017-02-02T01:49:31.872Z,180.00
2017-02-02T01:50:32.378Z,157.50
2017-02-02T01:51:32.902Z,157.50
2017-02-02T01:52:33.419Z,135.00
2017-02-02T01:53:33.936Z,157.50
2017-02-02T01:54:34.310Z,157.50
2017-02-02T01:55:34.844Z,180.00
2017-02-02T01:56:35.349Z,157.50
2017-02-02T01:57:36.015Z,157.50
2017-02-02T01:58:36.849Z,157.50
2017-02-02T01:59:37.203Z,135.00
2017-02-02T02:00:37.443Z,135.00
2017-02-02T02:01:37.953Z,157.50
2017-02-02T02:02:38.464Z,157.50
2017-02-02T02:03:38.990Z,157.50
2017-02-02T02:04:39.651Z,180.00
2017-02-02T02:05:40.086Z,180.00
2017-02-02T02:06:40.543Z,112.50
2017-02-02T02:07:41.065Z,157.50
2017-02-02T02:08:41.722Z,157.50
2017-02-02T02:09:42.249Z,112.50
2017-02-02T02:10:42.628Z,90.00
2017-02-02T02:11:43.132Z,135.00
2017-02-02T02:12:43.803Z,180.00
2017-02-02T02:13:44.325Z,157.50
2017-02-02T02:14:44.705Z,180.00
2017-02-02T02:15:45.363Z,180.00
2017-02-02T02:16:45.747Z,135.00
2017-02-02T02:17:46.259Z,157.50
2017-02-02T02:18:46.922Z,157.50
2017-02-02T02:19:47.306Z,112.50
2017-02-02T02:20:47.841Z,90.00
2017-02-02T02:21:48.343Z,135.00
2017-02-02T02:22:48.877Z,135.00
2017-02-02T02:23:49.530Z,135.00
2017-02-02T02:24:50.051Z,135.00
2017-02-02T02:25:50.441Z,135.00
2017-02-02T02:26:50.960Z,112.50
2017-02-02T02:27:51.620Z,157.50
2017-02-02T02:28:52.133Z,157.50
2017-02-02T02:29:52.521Z,135.00
2017-02-02T02:30:53.038Z,112.50
2017-02-02T02:31:53.689Z,90.00
2017-02-02T02:32:54.208Z,112.50
2017-02-02T02:33:54.591Z,112.50
2017-02-02T02:34:55.256Z,90.00
2017-02-02T02:35:55.785Z,90.00
2017-02-02T02:36:56.280Z,112.50
2017-02-02T02:37:56.662Z,112.50
2017-02-02T02:38:57.321Z,90.00
2017-02-02T02:39:57.690Z,135.00
2017-02-02T02:40:58.373Z,180.00
2017-02-02T02:41:58.743Z,157.50
2017-02-02T02:42:59.395Z,112.50
2017-02-02T02:43:59.800Z,90.00
2017-02-02T02:45:00.445Z,90.00
2017-02-02T02:46:00.964Z,90.00
2017-02-02T02:47:01.326Z,90.00
2017-02-02T02:48:01.851Z,90.00
2017-02-02T02:49:02.512Z,112.50
2017-02-02T02:50:03.027Z,112.50
2017-02-02T02:51:03.418Z,90.00
2017-02-02T02:52:03.932Z,90.00
2017-02-02T02:53:04.456Z,90.00
2017-02-02T02:54:04.967Z,112.50
2017-02-02T02:55:05.495Z,112.50
2017-02-02T02:56:06.151Z,90.00
2017-02-02T02:57:06.536Z,90.00
2017-02-02T02:58:07.054Z,90.00
2017-02-02T02:59:07.573Z,90.00
2017-02-02T03:00:08.085Z,112.50
2017-02-02T03:01:08.596Z,112.50
2017-02-02T03:02:09.136Z,112.50
2017-02-02T03:03:09.805Z,112.50
2017-02-02T03:04:10.185Z,157.50
2017-02-02T03:05:10.835Z,135.00
2017-02-02T03:06:11.227Z,135.00
2017-02-02T03:07:11.880Z,90.00
2017-02-02T03:08:12.250Z,90.00
2017-02-02T03:09:12.915Z,90.00
2017-02-02T03:10:13.302Z,112.50
2017-02-02T03:11:13.961Z,112.50
2017-02-02T03:12:14.481Z,112.50
2017-02-02T03:13:14.992Z,112.50
2017-02-02T03:14:15.376Z,90.00
2017-02-02T03:15:16.033Z,112.50
2017-02-02T03:16:16.432Z,112.50
2017-02-02T03:17:17.068Z,90.00
2017-02-02T03:18:17.472Z,135.00
2017-02-02T03:19:18.109Z,135.00
2017-02-02T03:20:18.630Z,135.00
2017-02-02T03:21:19.295Z,112.50
2017-02-02T03:22:19.668Z,112.50
2017-02-02T03:23:20.183Z,135.00
2017-02-02T03:24:20.702Z,135.00
2017-02-02T03:25:21.230Z,135.00
2017-02-02T03:26:21.602Z,90.00
2017-02-02T03:27:22.131Z,90.00
2017-02-02T03:28:22.640Z,90.00
2017-02-02T03:29:23.165Z,90.00
2017-02-02T03:30:26.674Z,90.00
2017-02-02T03:31:24.393Z,90.00
2017-02-02T03:32:24.719Z,90.00
2017-02-02T03:33:25.251Z,90.00
2017-02-02T03:34:25.897Z,112.50
2017-02-02T03:35:26.426Z,112.50
2017-02-02T03:36:26.790Z,90.00
2017-02-02T03:37:27.324Z,90.00
2017-02-02T03:38:27.840Z,90.00
2017-02-02T03:39:28.362Z,90.00
2017-02-02T03:40:29.015Z,90.00
2017-02-02T03:41:29.386Z,90.00
2017-02-02T03:42:30.049Z,112.50
2017-02-02T03:43:30.575Z,112.50
2017-02-02T03:44:31.103Z,90.00
2017-02-02T03:45:31.618Z,90.00
2017-02-02T03:46:32.003Z,90.00
2017-02-02T03:47:32.683Z,90.00
2017-02-02T03:48:33.054Z,112.50
2017-02-02T03:49:33.706Z,90.00
2017-02-02T03:50:34.087Z,90.00
2017-02-02T03:51:34.595Z,90.00
2017-02-02T03:52:35.272Z,90.00
2017-02-02T03:53:35.637Z,90.00
2017-02-02T03:54:36.301Z,112.50
2017-02-02T03:55:36.822Z,112.50
2017-02-02T03:56:37.203Z,135.00
2017-02-02T03:57:37.891Z,135.00
2017-02-02T03:58:38.381Z,112.50
2017-02-02T03:59:38.898Z,90.00
2017-02-02T04:00:39.439Z,112.50
2017-02-02T04:01:39.959Z,90.00
2017-02-02T04:02:40.331Z,112.50
2017-02-02T04:03:40.977Z,90.00
2017-02-02T04:04:41.359Z,90.00
2017-02-02T04:05:41.874Z,90.00
2017-02-02T04:06:42.398Z,90.00
2017-02-02T04:07:43.049Z,112.50
2017-02-02T04:08:43.435Z,90.00
2017-02-02T04:09:44.089Z,90.00
2017-02-02T04:10:44.609Z,90.00
2017-02-02T04:11:44.996Z,90.00
2017-02-02T04:12:45.652Z,112.50
2017-02-02T04:13:46.168Z,112.50
2017-02-02T04:14:46.558Z,135.00
2017-02-02T04:15:47.058Z,157.50
2017-02-02T04:16:47.583Z,135.00
2017-02-02T04:17:48.242Z,135.00
2017-02-02T04:18:48.628Z,135.00
2017-02-02T04:19:49.138Z,112.50
2017-02-02T04:20:49.670Z,135.00
2017-02-02T04:21:50.176Z,112.50
2017-02-02T04:22:50.704Z,135.00
2017-02-02T04:23:51.224Z,157.50
2017-02-02T04:24:51.753Z,157.50
2017-02-02T04:25:52.268Z,157.50
2017-02-02T04:26:52.797Z,135.00
2017-02-02T04:27:53.317Z,157.50
2017-02-02T04:28:53.839Z,157.50
2017-02-02T04:29:54.366Z,112.50
2017-02-02T04:30:54.885Z,135.00
2017-02-02T04:31:55.397Z,135.00
2017-02-02T04:32:56.066Z,112.50
2017-02-02T04:33:56.434Z,90.00
2017-02-02T04:34:56.967Z,90.00
2017-02-02T04:35:57.617Z,90.00
2017-02-02T04:36:57.987Z,90.00
2017-02-02T04:37:58.526Z,90.00
2017-02-02T04:38:59.185Z,90.00
2017-02-02T04:39:59.550Z,90.00
2017-02-02T04:41:00.395Z,90.00
2017-02-02T04:42:00.736Z,90.00
2017-02-02T04:43:01.128Z,112.50
2017-02-02T04:44:01.782Z,90.00
2017-02-02T04:45:02.150Z,90.00
2017-02-02T04:46:02.810Z,112.50
2017-02-02T04:47:03.208Z,112.50
2017-02-02T04:48:03.866Z,90.00
2017-02-02T04:49:04.230Z,90.00
2017-02-02T04:50:04.894Z,90.00
2017-02-02T04:51:05.288Z,90.00
2017-02-02T04:52:05.791Z,90.00
2017-02-02T04:53:06.323Z,90.00
2017-02-02T04:54:06.840Z,90.00
2017-02-02T04:55:07.490Z,90.00
2017-02-02T04:56:08.011Z,112.50
2017-02-02T04:57:08.463Z,112.50
2017-02-02T04:58:08.906Z,90.00
2017-02-02T04:59:09.570Z,90.00
2017-02-02T05:00:09.942Z,90.00
2017-02-02T05:01:10.609Z,90.00
2017-02-02T05:02:10.983Z,112.50
2017-02-02T05:03:11.509Z,112.50
2017-02-02T05:04:12.181Z,90.00
2017-02-02T05:05:12.689Z,135.00
2017-02-02T05:06:13.204Z,135.00
2017-02-02T05:07:13.594Z,112.50
2017-02-02T05:08:14.121Z,112.50
2017-02-02T05:09:14.781Z,90.00
2017-02-02T05:10:15.167Z,112.50
2017-02-02T05:11:15.689Z,90.00
2017-02-02T05:12:16.189Z,112.50
2017-02-02T05:13:16.728Z,67.50
2017-02-02T05:14:17.390Z,90.00
2017-02-02T05:15:17.901Z,90.00
2017-02-02T05:16:18.426Z,112.50
2017-02-02T05:17:18.804Z,90.00
2017-02-02T05:18:19.477Z,112.50
2017-02-02T05:19:19.844Z,112.50
2017-02-02T05:20:20.374Z,90.00
2017-02-02T05:21:21.195Z,90.00
2017-02-02T05:22:21.411Z,157.50
2017-02-02T05:23:21.927Z,157.50
2017-02-02T05:24:22.454Z,112.50
2017-02-02T05:25:22.968Z,90.00
2017-02-02T05:26:23.491Z,90.00
2017-02-02T05:27:24.010Z,90.00
2017-02-02T05:28:24.659Z,90.00
2017-02-02T05:29:25.043Z,135.00
2017-02-02T05:30:25.698Z,112.50
2017-02-02T05:31:26.080Z,90.00
2017-02-02T05:32:26.747Z,90.00
2017-02-02T05:33:27.131Z,90.00
2017-02-02T05:34:27.800Z,90.00
2017-02-02T05:35:28.301Z,112.50
2017-02-02T05:36:28.840Z,90.00
2017-02-02T05:37:29.201Z,112.50
2017-02-02T05:38:29.856Z,112.50
2017-02-02T05:39:30.248Z,112.50
2017-02-02T05:40:30.916Z,90.00
2017-02-02T05:41:31.422Z,112.50
2017-02-02T05:42:31.941Z,112.50
2017-02-02T05:43:32.463Z,90.00
2017-02-02T05:44:32.846Z,112.50
2017-02-02T05:45:33.348Z,90.00
2017-02-02T05:46:33.871Z,90.00
2017-02-02T05:47:34.404Z,112.50
2017-02-02T05:48:35.064Z,112.50
2017-02-02T05:49:35.446Z,90.00
2017-02-02T05:50:35.978Z,112.50
2017-02-02T05:51:36.625Z,157.50
2017-02-02T05:52:37.023Z,135.00
2017-02-02T05:53:37.667Z,112.50
2017-02-02T05:54:38.045Z,135.00
2017-02-02T05:55:38.577Z,135.00
2017-02-02T05:56:39.257Z,112.50
2017-02-02T05:57:39.755Z,157.50
2017-02-02T05:58:40.129Z,112.50
2017-02-02T05:59:40.790Z,112.50
2017-02-02T06:00:41.169Z,112.50
2017-02-02T06:01:41.982Z,90.00
2017-02-02T06:02:42.213Z,90.00
2017-02-02T06:03:42.732Z,90.00
2017-02-02T06:04:43.253Z,90.00
2017-02-02T06:05:43.908Z,90.00
2017-02-02T06:06:44.289Z,112.50
2017-02-02T06:07:44.811Z,157.50
2017-02-02T06:08:45.314Z,135.00
2017-02-02T06:09:45.845Z,90.00
2017-02-02T06:10:46.505Z,90.00
2017-02-02T06:11:46.888Z,90.00
2017-02-02T06:12:47.393Z,90.00
2017-02-02T06:13:48.062Z,112.50
2017-02-02T06:14:48.453Z,112.50
2017-02-02T06:15:48.968Z,90.00
2017-02-02T06:16:49.487Z,90.00
2017-02-02T06:17:50.138Z,90.00
2017-02-02T06:18:50.655Z,90.00
2017-02-02T06:19:51.184Z,90.00
2017-02-02T06:20:51.704Z,112.50
2017-02-02T06:21:52.081Z,112.50
2017-02-02T06:22:52.601Z,90.00
2017-02-02T06:23:53.268Z,157.50
2017-02-02T06:24:53.780Z,157.50
2017-02-02T06:25:54.173Z,135.00
2017-02-02T06:26:54.828Z,135.00
2017-02-02T06:27:55.191Z,135.00
2017-02-02T06:28:55.748Z,157.50
2017-02-02T06:29:56.231Z,135.00
2017-02-02T06:30:56.768Z,135.00
2017-02-02T06:31:57.289Z,135.00
2017-02-02T06:32:57.944Z,157.50
2017-02-02T06:33:58.468Z,135.00
2017-02-02T06:34:58.844Z,135.00
2017-02-02T06:35:59.511Z,157.50
2017-02-02T06:36:59.885Z,157.50
2017-02-02T06:38:00.409Z,157.50
2017-02-02T06:39:00.923Z,135.00
2017-02-02T06:40:01.466Z,90.00
2017-02-02T06:41:01.989Z,135.00
2017-02-02T06:42:02.943Z,112.50
2017-02-02T06:43:03.010Z,135.00
2017-02-02T06:44:03.691Z,135.00
2017-02-02T06:45:04.076Z,135.00
2017-02-02T06:46:04.607Z,112.50
2017-02-02T06:47:05.299Z,112.50
2017-02-02T06:48:05.655Z,135.00
2017-02-02T06:49:06.181Z,112.50
2017-02-02T06:50:06.711Z,112.50
2017-02-02T06:51:07.234Z,112.50
2017-02-02T06:52:07.743Z,112.50
2017-02-02T06:53:08.267Z,112.50
2017-02-02T06:54:08.795Z,157.50
2017-02-02T06:55:09.455Z,157.50
2017-02-02T06:56:09.876Z,112.50
2017-02-02T06:57:10.382Z,90.00
2017-02-02T06:58:10.877Z,67.50
2017-02-02T06:59:11.404Z,112.50
2017-02-02T07:00:12.070Z,112.50
2017-02-02T07:01:12.589Z,90.00
2017-02-02T07:02:12.972Z,135.00
2017-02-02T07:03:13.480Z,135.00
2017-02-02T07:04:14.052Z,157.50
2017-02-02T07:05:14.541Z,135.00
2017-02-02T07:06:15.047Z,90.00
2017-02-02T07:07:15.573Z,112.50
2017-02-02T07:08:16.106Z,135.00
2017-02-02T07:09:16.619Z,135.00
2017-02-02T07:10:17.274Z,135.00
2017-02-02T07:11:17.668Z,135.00
2017-02-02T07:12:18.323Z,135.00
2017-02-02T07:13:18.749Z,135.00
2017-02-02T07:14:19.237Z,90.00
2017-02-02T07:15:19.740Z,112.50
2017-02-02T07:16:20.275Z,112.50
2017-02-02T07:17:20.785Z,135.00
2017-02-02T07:18:21.308Z,135.00
2017-02-02T07:19:21.966Z,157.50
2017-02-02T07:20:22.498Z,112.50
2017-02-02T07:21:23.004Z,90.00
2017-02-02T07:22:23.680Z,157.50
2017-02-02T07:23:24.041Z,157.50
2017-02-02T07:24:24.416Z,157.50
2017-02-02T07:25:25.090Z,135.00
2017-02-02T07:26:25.472Z,135.00
2017-02-02T07:27:25.989Z,90.00
2017-02-02T07:28:26.641Z,157.50
2017-02-02T07:29:27.061Z,135.00
2017-02-02T07:30:27.543Z,112.50
2017-02-02T07:31:28.065Z,112.50
2017-02-02T07:32:28.740Z,135.00
2017-02-02T07:33:29.117Z,135.00
2017-02-02T07:34:29.776Z,135.00
2017-02-02T07:35:30.169Z,112.50
2017-02-02T07:36:30.676Z,135.00
2017-02-02T07:37:31.208Z,157.50
2017-02-02T07:38:31.737Z,157.50
2017-02-02T07:39:32.250Z,157.50
2017-02-02T07:40:32.771Z,157.50
2017-02-02T07:41:33.291Z,157.50
2017-02-02T07:42:33.817Z,112.50
2017-02-02T07:43:34.332Z,135.00
2017-02-02T07:44:34.850Z,112.50
2017-02-02T07:45:35.379Z,135.00
2017-02-02T07:46:35.904Z,135.00
2017-02-02T07:47:36.570Z,112.50
2017-02-02T07:48:37.089Z,135.00
2017-02-02T07:49:37.470Z,22.50
2017-02-02T07:50:38.139Z,0.00
2017-02-02T07:51:38.524Z,67.50
2017-02-02T07:52:39.051Z,45.00
2017-02-02T07:53:39.704Z,135.00
2017-02-02T07:54:40.232Z,135.00
2017-02-02T07:55:40.609Z,112.50
2017-02-02T07:56:41.162Z,112.50
2017-02-02T07:57:41.806Z,135.00
2017-02-02T07:58:42.215Z,157.50
2017-02-02T07:59:42.700Z,157.50
2017-02-02T08:00:43.364Z,157.50
2017-02-02T08:01:43.759Z,135.00
2017-02-02T08:02:44.548Z,135.00
2017-02-02T08:03:44.791Z,135.00
2017-02-02T08:04:45.299Z,157.50
2017-02-02T08:05:45.834Z,157.50
2017-02-02T08:06:46.354Z,157.50
2017-02-02T08:07:46.860Z,157.50
2017-02-02T08:08:47.524Z,135.00
2017-02-02T08:09:48.041Z,135.00
2017-02-02T08:10:48.437Z,157.50
2017-02-02T08:11:48.952Z,135.00
2017-02-02T08:12:49.483Z,135.00
2017-02-02T08:13:50.001Z,135.00
2017-02-02T08:14:50.524Z,135.00
2017-02-02T08:15:51.030Z,135.00
2017-02-02T08:16:51.556Z,135.00
2017-02-02T08:17:52.210Z,90.00
2017-02-02T08:18:52.610Z,90.00
2017-02-02T08:19:53.131Z,112.50
2017-02-02T08:20:53.649Z,135.00
2017-02-02T08:21:54.168Z,157.50
2017-02-02T08:22:54.687Z,112.50
2017-02-02T08:23:55.190Z,135.00
2017-02-02T08:24:55.710Z,112.50
2017-02-02T08:25:56.374Z,112.50
2017-02-02T08:26:56.748Z,90.00
2017-02-02T08:27:57.319Z,90.00
2017-02-02T08:28:57.799Z,90.00
2017-02-02T08:29:58.313Z,90.00
2017-02-02T08:30:58.848Z,90.00
2017-02-02T08:31:59.367Z,90.00
2017-02-02T08:33:00.021Z,90.00
2017-02-02T08:34:00.392Z,90.00
2017-02-02T08:35:00.915Z,112.50
2017-02-02T08:36:01.575Z,135.00
2017-02-02T08:37:01.959Z,112.50
2017-02-02T08:38:02.625Z,90.00
2017-02-02T08:39:03.020Z,90.00
2017-02-02T08:40:03.668Z,90.00
2017-02-02T08:41:04.059Z,90.00
2017-02-02T08:42:04.587Z,90.00
2017-02-02T08:43:05.269Z,112.50
2017-02-02T08:44:05.739Z,90.00
2017-02-02T08:45:06.118Z,90.00
2017-02-02T08:46:06.783Z,135.00
2017-02-02T08:47:07.306Z,157.50
2017-02-02T08:48:07.821Z,90.00
2017-02-02T08:49:08.342Z,112.50
2017-02-02T08:50:08.861Z,90.00
2017-02-02T08:51:09.243Z,90.00
2017-02-02T08:52:09.900Z,135.00
2017-02-02T08:53:10.278Z,112.50
2017-02-02T08:54:10.947Z,90.00
2017-02-02T08:55:11.463Z,112.50
2017-02-02T08:56:11.975Z,157.50
2017-02-02T08:57:12.359Z,135.00
2017-02-02T08:58:13.030Z,135.00
2017-02-02T08:59:13.536Z,112.50
2017-02-02T09:00:13.924Z,112.50
2017-02-02T09:01:14.431Z,90.00
2017-02-02T09:02:14.949Z,90.00
2017-02-02T09:03:15.464Z,90.00
2017-02-02T09:04:16.130Z,112.50
2017-02-02T09:05:16.515Z,90.00
2017-02-02T09:06:17.025Z,90.00
2017-02-02T09:07:17.693Z,112.50
2017-02-02T09:08:18.205Z,112.50
2017-02-02T09:09:18.609Z,112.50
2017-02-02T09:10:19.150Z,135.00
2017-02-02T09:11:19.627Z,90.00
2017-02-02T09:12:20.287Z,90.00
2017-02-02T09:13:20.663Z,90.00
2017-02-02T09:14:21.177Z,90.00
2017-02-02T09:15:21.714Z,112.50
2017-02-02T09:16:22.361Z,112.50
2017-02-02T09:17:22.752Z,112.50
2017-02-02T09:18:23.267Z,112.50
2017-02-02T09:19:23.947Z,112.50
2017-02-02T09:20:24.313Z,112.50
2017-02-02T09:21:24.842Z,112.50
2017-02-02T09:22:25.517Z,90.00
2017-02-02T09:23:26.017Z,90.00
2017-02-02T09:24:26.404Z,112.50
2017-02-02T09:25:26.927Z,90.00
2017-02-02T09:26:27.472Z,90.00
2017-02-02T09:27:28.100Z,90.00
2017-02-02T09:28:28.462Z,112.50
2017-02-02T09:29:28.986Z,90.00
2017-02-02T09:30:29.505Z,90.00
2017-02-02T09:31:30.024Z,90.00
2017-02-02T09:32:30.543Z,90.00
2017-02-02T09:33:31.070Z,90.00
2017-02-02T09:34:31.739Z,90.00
2017-02-02T09:35:32.094Z,90.00
2017-02-02T09:36:32.782Z,90.00
2017-02-02T09:37:33.155Z,90.00
2017-02-02T09:38:33.666Z,90.00
2017-02-02T09:39:34.326Z,90.00
2017-02-02T09:40:34.710Z,90.00
2017-02-02T09:41:35.432Z,90.00
2017-02-02T09:42:35.884Z,90.00
2017-02-02T09:43:36.255Z,90.00
2017-02-02T09:44:36.920Z,112.50
2017-02-02T09:45:37.310Z,135.00
2017-02-02T09:46:37.813Z,112.50
2017-02-02T09:47:38.334Z,112.50
2017-02-02T09:48:38.872Z,112.50
2017-02-02T09:49:39.521Z,90.00
2017-02-02T09:50:39.893Z,90.00
2017-02-02T09:51:40.559Z,90.00
2017-02-02T09:52:41.078Z,90.00
2017-02-02T09:53:41.458Z,112.50
2017-02-02T09:54:41.980Z,90.00
2017-02-02T09:55:42.650Z,90.00
2017-02-02T09:56:43.153Z,90.00
2017-02-02T09:57:43.541Z,112.50
2017-02-02T09:58:44.045Z,90.00
2017-02-02T09:59:47.310Z,90.00
2017-02-02T10:00:45.119Z,90.00
2017-02-02T10:01:45.639Z,90.00
2017-02-02T10:02:46.148Z,90.00
2017-02-02T10:03:46.953Z,90.00
2017-02-02T10:04:47.180Z,90.00
2017-02-02T10:05:47.705Z,90.00
2017-02-02T10:06:48.227Z,90.00
2017-02-02T10:07:48.739Z,112.50
2017-02-02T10:08:49.404Z,90.00
2017-02-02T10:09:49.928Z,90.00
2017-02-02T10:10:50.299Z,90.00
2017-02-02T10:11:50.830Z,90.00
2017-02-02T10:12:51.483Z,90.00
2017-02-02T10:13:51.868Z,90.00
2017-02-02T10:14:52.400Z,90.00
2017-02-02T10:15:52.893Z,112.50
2017-02-02T10:16:53.414Z,112.50
2017-02-02T10:17:53.976Z,112.50
2017-02-02T10:18:54.456Z,90.00
2017-02-02T10:19:54.969Z,90.00
2017-02-02T10:20:55.534Z,90.00
2017-02-02T10:21:56.021Z,90.00
2017-02-02T10:22:56.674Z,135.00
2017-02-02T10:23:57.198Z,112.50
2017-02-02T10:24:57.568Z,90.00
2017-02-02T10:25:58.103Z,90.00
2017-02-02T10:26:58.757Z,90.00
2017-02-02T10:27:59.282Z,90.00
2017-02-02T10:28:59.801Z,90.00
2017-02-02T10:30:00.178Z,90.00
2017-02-02T10:31:00.843Z,112.50
2017-02-02T10:32:01.367Z,112.50
2017-02-02T10:33:01.730Z,90.00
2017-02-02T10:34:02.393Z,112.50
2017-02-02T10:35:02.780Z,112.50
2017-02-02T10:36:03.299Z,112.50
2017-02-02T10:37:03.953Z,112.50
2017-02-02T10:38:04.347Z,90.00
2017-02-02T10:39:04.990Z,90.00
2017-02-02T10:40:05.373Z,90.00
2017-02-02T10:41:06.036Z,90.00
2017-02-02T10:42:06.559Z,112.50
2017-02-02T10:43:06.935Z,112.50
2017-02-02T10:44:07.755Z,90.00
2017-02-02T10:45:08.127Z,112.50
2017-02-02T10:46:08.642Z,157.50
2017-02-02T10:47:09.013Z,112.50
2017-02-02T10:48:09.533Z,90.00
2017-02-02T10:49:10.202Z,90.00
2017-02-02T10:50:10.722Z,90.00
2017-02-02T10:51:11.234Z,135.00
2017-02-02T10:53:12.270Z,135.00
2017-02-02T10:54:12.644Z,112.50
2017-02-02T10:55:13.455Z,157.50
2017-02-02T10:56:13.821Z,135.00
2017-02-02T10:57:14.188Z,135.00
2017-02-02T10:58:14.853Z,112.50
2017-02-02T10:59:15.363Z,90.00
2017-02-02T11:00:15.740Z,90.00
2017-02-02T11:01:16.404Z,112.50
2017-02-02T11:02:16.795Z,90.00
2017-02-02T11:03:17.320Z,90.00
2017-02-02T11:04:17.970Z,90.00
2017-02-02T11:05:18.356Z,90.00
2017-02-02T11:06:18.878Z,90.00
2017-02-02T11:07:19.534Z,90.00
2017-02-02T11:08:19.923Z,90.00
2017-02-02T11:09:20.439Z,112.50
2017-02-02T11:10:20.959Z,90.00
2017-02-02T11:11:21.488Z,90.00
2017-02-02T11:12:22.013Z,90.00
2017-02-02T11:13:22.531Z,90.00
2017-02-02T11:14:23.052Z,112.50
2017-02-02T11:15:23.571Z,90.00
2017-02-02T11:16:24.106Z,90.00
2017-02-02T11:17:24.765Z,90.00
2017-02-02T11:18:25.287Z,90.00
2017-02-02T11:19:25.665Z,112.50
2017-02-02T11:20:26.187Z,112.50
2017-02-02T11:21:26.724Z,112.50
2017-02-02T11:22:27.230Z,135.00
2017-02-02T11:23:27.912Z,135.00
2017-02-02T11:24:28.582Z,90.00
2017-02-02T11:25:28.963Z,90.00
2017-02-02T11:26:29.349Z,112.50
2017-02-02T11:27:29.877Z,135.00
2017-02-02T11:28:30.394Z,135.00
2017-02-02T11:29:30.918Z,90.00
2017-02-02T11:30:31.448Z,90.00
2017-02-02T11:31:31.985Z,112.50
2017-02-02T11:32:32.487Z,135.00
2017-02-02T11:33:33.011Z,135.00
2017-02-02T11:34:33.553Z,135.00
2017-02-02T11:35:34.079Z,90.00
2017-02-02T11:36:34.595Z,112.50
2017-02-02T11:37:35.108Z,112.50
2017-02-02T11:38:35.637Z,90.00
2017-02-02T11:39:36.159Z,90.00
2017-02-02T11:40:36.816Z,90.00
2017-02-02T11:41:37.349Z,90.00
2017-02-02T11:42:37.730Z,90.00
2017-02-02T11:43:38.384Z,90.00
2017-02-02T11:44:38.767Z,90.00
2017-02-02T11:45:39.428Z,90.00
2017-02-02T11:46:39.816Z,90.00
2017-02-02T11:47:40.332Z,90.00
2017-02-02T11:48:40.999Z,90.00
2017-02-02T11:49:41.527Z,90.00
2017-02-02T11:50:41.908Z,90.00
2017-02-02T11:51:42.569Z,90.00
2017-02-02T11:52:43.096Z,90.00
2017-02-02T11:53:43.468Z,90.00
2017-02-02T11:54:44.006Z,135.00
2017-02-02T11:55:44.526Z,90.00
2017-02-02T11:56:45.041Z,90.00
2017-02-02T11:57:45.564Z,90.00
2017-02-02T11:58:46.087Z,90.00
2017-02-02T11:59:46.758Z,90.00
2017-02-02T12:00:47.142Z,112.50
2017-02-02T12:01:47.653Z,90.00
2017-02-02T12:02:48.178Z,90.00
2017-02-02T12:03:48.732Z,112.50
2017-02-02T12:04:49.370Z,112.50
2017-02-02T12:05:49.890Z,90.00
2017-02-02T12:06:50.281Z,90.00
2017-02-02T12:07:50.807Z,112.50
2017-02-02T12:08:51.338Z,90.00
2017-02-02T12:09:51.847Z,90.00
2017-02-02T12:10:52.380Z,112.50
2017-02-02T12:11:53.039Z,112.50
2017-02-02T12:12:53.417Z,112.50
2017-02-02T12:13:54.100Z,90.00
2017-02-02T12:14:54.471Z,90.00
2017-02-02T12:15:55.005Z,90.00
2017-02-02T12:16:55.514Z,90.00
2017-02-02T12:17:56.026Z,90.00
2017-02-02T12:18:56.560Z,112.50
2017-02-02T12:19:57.230Z,90.00
2017-02-02T12:20:57.602Z,90.00
2017-02-02T12:21:58.123Z,90.00
2017-02-02T12:22:58.642Z,90.00
2017-02-02T12:23:59.298Z,112.50
2017-02-02T12:24:59.674Z,135.00
2017-02-02T12:26:00.199Z,135.00
2017-02-02T12:27:00.741Z,112.50
2017-02-02T12:28:01.252Z,90.00
2017-02-02T12:29:01.913Z,90.00
2017-02-02T12:30:02.287Z,90.00
2017-02-02T12:31:02.822Z,90.00
2017-02-02T12:32:03.353Z,90.00
2017-02-02T12:33:06.103Z,90.00
2017-02-02T12:34:04.375Z,90.00
2017-02-02T12:35:04.912Z,90.00
2017-02-02T12:36:05.423Z,90.00
2017-02-02T12:37:05.952Z,90.00
2017-02-02T12:38:06.609Z,112.50
2017-02-02T12:39:07.133Z,90.00
2017-02-02T12:40:07.654Z,90.00
2017-02-02T12:41:08.187Z,90.00
2017-02-02T12:42:08.575Z,135.00
2017-02-02T12:43:09.086Z,135.00
2017-02-02T12:44:09.815Z,112.50
2017-02-02T12:45:10.271Z,90.00